createdAt,value
2016-09-22T00:00:24.957Z,0
2016-09-22T00:01:05.494Z,0
2016-09-22T00:01:46.045Z,0
2016-09-22T00:02:26.583Z,0
2016-09-22T00:03:07.123Z,0
2016-09-22T00:03:47.656Z,0
2016-09-22T00:04:28.207Z,0
2016-09-22T00:05:08.748Z,0
2016-09-22T00:05:49.303Z,0
2016-09-22T00:06:29.843Z,0
2016-09-22T00:07:10.395Z,0
2016-09-22T00:07:50.923Z,0
2016-09-22T00:08:31.467Z,0
2016-09-22T00:09:12.009Z,0
2016-09-22T00:09:52.547Z,0
2016-09-22T00:10:33.088Z,0
2016-09-22T00:11:13.634Z,0
2016-09-22T00:11:54.176Z,0
2016-09-22T00:12:34.722Z,0
2016-09-22T00:13:15.352Z,0
2016-09-22T00:13:55.890Z,0
2016-09-22T00:14:36.434Z,0
2016-09-22T00:15:16.967Z,0
2016-09-22T00:15:57.499Z,0
2016-09-22T00:16:38.043Z,0
2016-09-22T00:17:18.590Z,0
2016-09-22T00:17:59.131Z,0
2016-09-22T00:18:39.670Z,0
2016-09-22T00:19:20.208Z,0
2016-09-22T00:20:00.749Z,0
2016-09-22T00:20:41.285Z,0
2016-09-22T00:21:21.829Z,0
2016-09-22T00:22:02.371Z,0
2016-09-22T00:22:42.901Z,0
2016-09-22T00:23:23.446Z,0
2016-09-22T00:24:03.975Z,0
2016-09-22T00:24:44.515Z,0
2016-09-22T00:25:25.052Z,0
2016-09-22T00:26:05.591Z,0
2016-09-22T00:26:46.134Z,0
2016-09-22T00:27:26.671Z,0
2016-09-22T00:28:07.203Z,0
2016-09-22T00:28:47.752Z,0
2016-09-22T00:29:28.298Z,0
2016-09-22T00:30:08.837Z,0
2016-09-22T00:30:49.392Z,0
2016-09-22T00:31:29.928Z,0
2016-09-22T00:32:10.468Z,0
2016-09-22T00:32:51.009Z,0
2016-09-22T00:33:31.558Z,0
2016-09-22T00:34:12.087Z,0
2016-09-22T00:34:52.630Z,0
2016-09-22T00:35:33.169Z,0
2016-09-22T00:36:13.706Z,0
2016-09-22T00:36:54.250Z,0
2016-09-22T00:37:34.789Z,0
2016-09-22T00:38:15.326Z,0
2016-09-22T00:38:55.873Z,0
2016-09-22T00:39:36.413Z,0
2016-09-22T00:40:16.951Z,0
2016-09-22T00:40:57.488Z,0
2016-09-22T00:41:38.024Z,0
2016-09-22T00:42:18.564Z,0
2016-09-22T00:42:59.108Z,0
2016-09-22T00:43:39.647Z,0
2016-09-22T00:44:20.192Z,0
2016-09-22T00:45:00.726Z,0
2016-09-22T00:45:41.272Z,0
2016-09-22T00:46:21.807Z,0
2016-09-22T00:47:02.350Z,0
2016-09-22T00:47:42.888Z,0
2016-09-22T00:48:23.426Z,0
2016-09-22T00:49:03.965Z,0
2016-09-22T00:49:44.511Z,0
2016-09-22T00:50:25.049Z,0
2016-09-22T00:51:05.596Z,0
2016-09-22T00:51:46.112Z,0
2016-09-22T00:52:26.649Z,0
2016-09-22T00:53:07.193Z,0
2016-09-22T00:53:47.725Z,0
2016-09-22T00:54:28.273Z,0
2016-09-22T00:55:08.813Z,0
2016-09-22T00:55:49.353Z,0
2016-09-22T00:56:29.893Z,0
2016-09-22T00:57:10.439Z,0
2016-09-22T00:57:50.990Z,0
2016-09-22T00:58:31.521Z,0
2016-09-22T00:59:12.071Z,0
2016-09-22T00:59:52.612Z,0
2016-09-22T01:00:33.150Z,0
2016-09-22T01:01:13.693Z,0
2016-09-22T01:01:54.237Z,0
2016-09-22T01:02:34.780Z,0
2016-09-22T01:03:15.323Z,0
2016-09-22T01:03:55.874Z,0
2016-09-22T01:04:36.420Z,0
2016-09-22T01:05:16.957Z,0
2016-09-22T01:05:57.497Z,0
2016-09-22T01:06:38.027Z,0
2016-09-22T01:07:18.579Z,0
2016-09-22T01:07:59.106Z,0
2016-09-22T01:08:39.646Z,0
2016-09-22T01:09:20.187Z,0
2016-09-22T01:10:00.730Z,0
2016-09-22T01:10:41.257Z,0
2016-09-22T01:11:21.794Z,0
2016-09-22T01:12:02.330Z,0
2016-09-22T01:12:42.870Z,0
2016-09-22T01:13:23.397Z,0
2016-09-22T01:14:03.940Z,0
2016-09-22T01:14:44.480Z,0
2016-09-22T01:15:25.026Z,0
2016-09-22T01:16:05.565Z,0
2016-09-22T01:16:46.106Z,0
2016-09-22T01:17:26.650Z,0
2016-09-22T01:18:07.185Z,0
2016-09-22T01:18:47.725Z,0
2016-09-22T01:19:28.260Z,0
2016-09-22T01:20:08.804Z,0
2016-09-22T01:20:49.355Z,0
2016-09-22T01:21:29.898Z,0
2016-09-22T01:22:10.441Z,0
2016-09-22T01:22:50.984Z,0
2016-09-22T01:23:31.524Z,0
2016-09-22T01:24:12.060Z,0
2016-09-22T01:24:52.592Z,0
2016-09-22T01:25:33.130Z,0
2016-09-22T01:26:13.673Z,0
2016-09-22T01:26:54.205Z,0
2016-09-22T01:27:34.732Z,0
2016-09-22T01:28:15.281Z,0
2016-09-22T01:28:55.831Z,0
2016-09-22T01:29:36.350Z,0
2016-09-22T01:30:16.894Z,0
2016-09-22T01:30:57.430Z,0
2016-09-22T01:31:37.967Z,0
2016-09-22T01:32:18.504Z,0
2016-09-22T01:32:59.052Z,0
2016-09-22T01:33:39.594Z,0
2016-09-22T01:34:20.134Z,0
2016-09-22T01:35:00.677Z,0
2016-09-22T01:35:41.223Z,0
2016-09-22T01:36:21.752Z,0
2016-09-22T01:37:02.291Z,0
2016-09-22T01:37:42.830Z,0
2016-09-22T01:38:23.371Z,0
2016-09-22T01:39:03.908Z,0
2016-09-22T01:39:44.464Z,0
2016-09-22T01:40:24.983Z,0
2016-09-22T01:41:05.527Z,0
2016-09-22T01:41:46.057Z,0
2016-09-22T01:42:26.597Z,0
2016-09-22T01:43:07.148Z,0
2016-09-22T01:43:47.667Z,0
2016-09-22T01:44:28.208Z,0
2016-09-22T01:45:08.751Z,0
2016-09-22T01:45:49.292Z,0
2016-09-22T01:46:29.827Z,0
2016-09-22T01:47:10.361Z,0
2016-09-22T01:47:50.905Z,0
2016-09-22T01:48:31.442Z,0
2016-09-22T01:49:11.978Z,0
2016-09-22T01:49:52.520Z,0
2016-09-22T01:50:33.063Z,0
2016-09-22T01:51:13.600Z,0
2016-09-22T01:51:54.150Z,0
2016-09-22T01:52:34.699Z,0
2016-09-22T01:53:15.215Z,0
2016-09-22T01:53:55.753Z,0
2016-09-22T01:54:36.295Z,0
2016-09-22T01:55:16.835Z,0
2016-09-22T01:55:57.376Z,0
2016-09-22T01:56:37.918Z,0
2016-09-22T01:57:18.451Z,0
2016-09-22T01:57:58.992Z,0
2016-09-22T01:58:39.530Z,0
2016-09-22T01:59:20.074Z,0
2016-09-22T02:00:00.600Z,0
2016-09-22T02:00:41.139Z,0
2016-09-22T02:01:21.684Z,0
2016-09-22T02:02:02.213Z,0
2016-09-22T02:02:42.756Z,0
2016-09-22T02:03:23.295Z,0
2016-09-22T02:04:03.837Z,0
2016-09-22T02:04:44.372Z,0
2016-09-22T02:05:24.907Z,0
2016-09-22T02:06:05.446Z,0
2016-09-22T02:06:45.993Z,0
2016-09-22T02:07:26.535Z,0
2016-09-22T02:08:07.064Z,0
2016-09-22T02:08:47.620Z,0
2016-09-22T02:09:28.155Z,0
2016-09-22T02:10:08.715Z,0
2016-09-22T02:10:49.239Z,0
2016-09-22T02:11:29.782Z,0
2016-09-22T02:12:10.330Z,0
2016-09-22T02:12:50.867Z,0
2016-09-22T02:13:31.406Z,0
2016-09-22T02:14:11.948Z,0
2016-09-22T02:14:52.491Z,0
2016-09-22T02:15:33.033Z,0
2016-09-22T02:16:13.570Z,0
2016-09-22T02:16:54.107Z,0
2016-09-22T02:17:34.643Z,0
2016-09-22T02:18:15.172Z,0
2016-09-22T02:18:55.709Z,0
2016-09-22T02:19:36.251Z,0
2016-09-22T02:20:16.795Z,0
2016-09-22T02:20:57.338Z,0
2016-09-22T02:21:37.879Z,0
2016-09-22T02:22:18.422Z,0
2016-09-22T02:22:58.962Z,0
2016-09-22T02:23:39.503Z,0
2016-09-22T02:24:20.041Z,0
2016-09-22T02:25:00.579Z,0
2016-09-22T02:25:41.114Z,0
2016-09-22T02:26:21.655Z,0
2016-09-22T02:27:02.201Z,0
2016-09-22T02:27:42.740Z,0
2016-09-22T02:28:23.291Z,0
2016-09-22T02:29:03.834Z,0
2016-09-22T02:29:44.377Z,0
2016-09-22T02:30:24.918Z,0
2016-09-22T02:31:05.463Z,0
2016-09-22T02:31:45.998Z,0
2016-09-22T02:32:26.532Z,0
2016-09-22T02:33:07.073Z,0
2016-09-22T02:33:47.622Z,0
2016-09-22T02:34:28.161Z,0
2016-09-22T02:35:08.717Z,0
2016-09-22T02:35:49.262Z,0
2016-09-22T02:36:29.808Z,0
2016-09-22T02:37:10.353Z,0
2016-09-22T02:37:50.881Z,0
2016-09-22T02:38:31.417Z,0
2016-09-22T02:39:11.956Z,0
2016-09-22T02:39:52.494Z,0
2016-09-22T02:40:33.029Z,0
2016-09-22T02:41:13.575Z,0
2016-09-22T02:41:54.116Z,0
2016-09-22T02:42:34.668Z,0
2016-09-22T02:43:15.215Z,0
2016-09-22T02:43:55.749Z,0
2016-09-22T02:44:36.295Z,0
2016-09-22T02:45:16.833Z,0
2016-09-22T02:45:57.382Z,0
2016-09-22T02:46:37.913Z,0
2016-09-22T02:47:18.451Z,0
2016-09-22T02:47:58.994Z,0
2016-09-22T02:48:39.531Z,0
2016-09-22T02:49:20.076Z,0
2016-09-22T02:50:00.618Z,0
2016-09-22T02:50:41.166Z,0
2016-09-22T02:51:21.696Z,0
2016-09-22T02:52:02.239Z,0
2016-09-22T02:52:42.780Z,0
2016-09-22T02:53:23.338Z,0
2016-09-22T02:54:03.868Z,0
2016-09-22T02:54:44.410Z,0
2016-09-22T02:55:24.949Z,0
2016-09-22T02:56:05.484Z,0
2016-09-22T02:56:46.029Z,0
2016-09-22T02:57:26.571Z,0
2016-09-22T02:58:07.118Z,0
2016-09-22T02:58:47.658Z,0
2016-09-22T02:59:28.212Z,0
2016-09-22T03:00:08.756Z,0
2016-09-22T03:00:49.297Z,0
2016-09-22T03:01:29.836Z,0
2016-09-22T03:02:10.375Z,0
2016-09-22T03:02:50.911Z,0
2016-09-22T03:03:31.459Z,0
2016-09-22T03:04:11.993Z,0
2016-09-22T03:04:52.536Z,0
2016-09-22T03:05:33.077Z,0
2016-09-22T03:06:13.620Z,0
2016-09-22T03:06:54.154Z,0
2016-09-22T03:07:34.693Z,0
2016-09-22T03:08:15.230Z,0
2016-09-22T03:08:55.765Z,0
2016-09-22T03:09:36.304Z,0
2016-09-22T03:10:16.848Z,0
2016-09-22T03:10:57.390Z,0
2016-09-22T03:11:37.931Z,0
2016-09-22T03:12:18.480Z,0
2016-09-22T03:12:59.008Z,0
2016-09-22T03:13:39.545Z,0
2016-09-22T03:14:20.086Z,0
2016-09-22T03:15:00.618Z,0
2016-09-22T03:15:41.158Z,0
2016-09-22T03:16:21.695Z,0
2016-09-22T03:17:02.240Z,0
2016-09-22T03:17:42.785Z,0
2016-09-22T03:18:23.323Z,0
2016-09-22T03:19:03.853Z,0
2016-09-22T03:19:44.392Z,0
2016-09-22T03:20:24.925Z,0
2016-09-22T03:21:05.471Z,0
2016-09-22T03:21:46.011Z,0
2016-09-22T03:22:26.552Z,0
2016-09-22T03:23:07.217Z,0
2016-09-22T03:23:47.758Z,0
2016-09-22T03:24:28.294Z,0
2016-09-22T03:25:08.843Z,0
2016-09-22T03:25:49.377Z,0
2016-09-22T03:26:29.921Z,0
2016-09-22T03:27:10.463Z,0
2016-09-22T03:27:50.998Z,0
2016-09-22T03:28:31.529Z,0
2016-09-22T03:29:12.070Z,0
2016-09-22T03:29:52.610Z,0
2016-09-22T03:30:33.160Z,0
2016-09-22T03:31:13.717Z,0
2016-09-22T03:31:54.263Z,0
2016-09-22T03:32:34.805Z,0
2016-09-22T03:33:15.354Z,0
2016-09-22T03:33:55.902Z,0
2016-09-22T03:34:36.443Z,0
2016-09-22T03:35:16.980Z,0
2016-09-22T03:35:57.520Z,0
2016-09-22T03:36:38.057Z,0
2016-09-22T03:37:18.600Z,0
2016-09-22T03:37:59.141Z,0
2016-09-22T03:38:39.681Z,0
2016-09-22T03:39:20.224Z,0
2016-09-22T03:40:00.767Z,0
2016-09-22T03:40:41.310Z,0
2016-09-22T03:41:21.848Z,0
2016-09-22T03:42:02.390Z,0
2016-09-22T03:42:42.934Z,0
2016-09-22T03:43:23.473Z,0
2016-09-22T03:44:04.007Z,0
2016-09-22T03:44:44.549Z,0
2016-09-22T03:45:25.095Z,0
2016-09-22T03:46:05.635Z,0
2016-09-22T03:46:46.184Z,0
2016-09-22T03:47:26.730Z,0
2016-09-22T03:48:07.270Z,0
2016-09-22T03:48:47.816Z,0
2016-09-22T03:49:28.365Z,0
2016-09-22T03:50:08.904Z,0
2016-09-22T03:50:49.440Z,0
2016-09-22T03:51:29.982Z,0
2016-09-22T03:52:10.523Z,0
2016-09-22T03:52:51.061Z,0
2016-09-22T03:53:31.604Z,0
2016-09-22T03:54:12.141Z,0
2016-09-22T03:54:52.684Z,0
2016-09-22T03:55:33.235Z,0
2016-09-22T03:56:13.778Z,0
2016-09-22T03:56:54.324Z,0
2016-09-22T03:57:34.998Z,0
2016-09-22T03:58:15.540Z,0
2016-09-22T03:58:56.085Z,0
2016-09-22T03:59:36.630Z,0
2016-09-22T04:00:17.171Z,0
2016-09-22T04:00:57.720Z,0
2016-09-22T04:01:38.256Z,0
2016-09-22T04:02:18.793Z,0
2016-09-22T04:02:59.336Z,0
2016-09-22T04:03:39.869Z,0
2016-09-22T04:04:20.437Z,0
2016-09-22T04:05:00.979Z,0
2016-09-22T04:05:41.519Z,0
2016-09-22T04:06:22.171Z,0
2016-09-22T04:07:02.712Z,0
2016-09-22T04:07:43.254Z,0
2016-09-22T04:08:23.797Z,0
2016-09-22T04:09:04.342Z,0
2016-09-22T04:09:44.887Z,0
2016-09-22T04:10:25.422Z,0
2016-09-22T04:11:05.967Z,0
2016-09-22T04:11:46.508Z,0
2016-09-22T04:12:27.046Z,0
2016-09-22T04:13:07.583Z,0
2016-09-22T04:13:48.125Z,0
2016-09-22T04:14:28.664Z,0
2016-09-22T04:15:09.258Z,0
2016-09-22T04:15:49.813Z,0
2016-09-22T04:16:30.339Z,0
2016-09-22T04:17:10.874Z,0
2016-09-22T04:17:51.418Z,0
2016-09-22T04:18:31.962Z,0
2016-09-22T04:19:12.504Z,0
2016-09-22T04:19:53.109Z,0
2016-09-22T04:20:33.633Z,0
2016-09-22T04:21:14.173Z,0
2016-09-22T04:21:54.720Z,0
2016-09-22T04:22:35.264Z,0
2016-09-22T04:23:15.802Z,0
2016-09-22T04:23:56.347Z,0
2016-09-22T04:24:36.891Z,0
2016-09-22T04:25:17.430Z,0
2016-09-22T04:25:57.967Z,0
2016-09-22T04:26:38.508Z,0
2016-09-22T04:27:19.045Z,0
2016-09-22T04:27:59.580Z,0
2016-09-22T04:28:40.119Z,0
2016-09-22T04:29:20.662Z,0
2016-09-22T04:30:01.229Z,0
2016-09-22T04:30:41.771Z,0
2016-09-22T04:31:22.313Z,0
2016-09-22T04:32:02.855Z,0
2016-09-22T04:32:43.540Z,0
2016-09-22T04:33:23.997Z,0
2016-09-22T04:34:04.594Z,0
2016-09-22T04:34:45.083Z,0
2016-09-22T04:35:25.612Z,0
2016-09-22T04:36:06.157Z,0
2016-09-22T04:36:46.701Z,0
2016-09-22T04:37:27.286Z,0
2016-09-22T04:38:07.828Z,0
2016-09-22T04:38:48.372Z,0
2016-09-22T04:39:28.914Z,0
2016-09-22T04:40:09.448Z,0
2016-09-22T04:40:49.996Z,0
2016-09-22T04:41:30.546Z,0
2016-09-22T04:42:11.092Z,0
2016-09-22T04:42:51.625Z,0
2016-09-22T04:43:32.166Z,0
2016-09-22T04:44:12.696Z,0
2016-09-22T04:44:53.239Z,0
2016-09-22T04:45:33.778Z,0
2016-09-22T04:46:14.326Z,0
2016-09-22T04:46:54.863Z,0
2016-09-22T04:47:35.402Z,0
2016-09-22T04:48:15.942Z,4
2016-09-22T04:48:56.479Z,4
2016-09-22T04:49:37.016Z,4
2016-09-22T04:50:17.556Z,0
2016-09-22T04:50:58.103Z,0
2016-09-22T04:51:38.643Z,4
2016-09-22T04:52:19.190Z,4
2016-09-22T04:52:59.738Z,0
2016-09-22T04:53:40.281Z,4
2016-09-22T04:54:20.821Z,4
2016-09-22T04:55:01.365Z,4
2016-09-22T04:55:41.908Z,4
2016-09-22T04:56:22.449Z,4
2016-09-22T04:57:02.986Z,8
2016-09-22T04:57:43.529Z,8
2016-09-22T04:58:24.070Z,12
2016-09-22T04:59:04.609Z,12
2016-09-22T04:59:45.148Z,12
2016-09-22T05:00:25.695Z,16
2016-09-22T05:01:06.236Z,16
2016-09-22T05:01:46.784Z,16
2016-09-22T05:02:27.326Z,20
2016-09-22T05:03:07.868Z,24
2016-09-22T05:03:48.396Z,28
2016-09-22T05:04:28.945Z,32
2016-09-22T05:05:09.495Z,32
2016-09-22T05:05:50.014Z,36
2016-09-22T05:06:30.553Z,40
2016-09-22T05:07:11.101Z,48
2016-09-22T05:07:51.643Z,52
2016-09-22T05:08:32.188Z,56
2016-09-22T05:09:12.723Z,60
2016-09-22T05:09:53.274Z,68
2016-09-22T05:10:33.821Z,68
2016-09-22T05:11:14.365Z,76
2016-09-22T05:11:54.904Z,76
2016-09-22T05:12:35.451Z,84
2016-09-22T05:13:15.985Z,88
2016-09-22T05:13:56.525Z,92
2016-09-22T05:14:37.070Z,96
2016-09-22T05:15:17.612Z,108
2016-09-22T05:15:58.160Z,116
2016-09-22T05:16:38.681Z,116
2016-09-22T05:17:19.218Z,124
2016-09-22T05:17:59.845Z,132
2016-09-22T05:18:40.280Z,140
2016-09-22T05:19:20.821Z,144
2016-09-22T05:20:01.365Z,156
2016-09-22T05:20:41.919Z,164
2016-09-22T05:21:22.471Z,172
2016-09-22T05:22:03.016Z,180
2016-09-22T05:22:43.578Z,192
2016-09-22T05:23:24.121Z,200
2016-09-22T05:24:04.663Z,216
2016-09-22T05:24:45.210Z,232
2016-09-22T05:25:25.739Z,244
2016-09-22T05:26:06.276Z,260
2016-09-22T05:26:46.820Z,276
2016-09-22T05:27:27.366Z,288
2016-09-22T05:28:07.901Z,300
2016-09-22T05:28:48.441Z,316
2016-09-22T05:29:29.000Z,332
2016-09-22T05:30:09.538Z,344
2016-09-22T05:30:50.079Z,360
2016-09-22T05:31:30.631Z,372
2016-09-22T05:32:11.176Z,384
2016-09-22T05:32:51.719Z,396
2016-09-22T05:33:32.260Z,408
2016-09-22T05:34:12.797Z,420
2016-09-22T05:34:53.344Z,436
2016-09-22T05:35:33.863Z,456
2016-09-22T05:36:14.809Z,476
2016-09-22T05:36:54.940Z,496
2016-09-22T05:37:35.485Z,516
2016-09-22T05:38:16.043Z,536
2016-09-22T05:38:56.576Z,556
2016-09-22T05:39:37.127Z,576
2016-09-22T05:40:17.663Z,592
2016-09-22T05:40:58.204Z,608
2016-09-22T05:41:38.745Z,612
2016-09-22T05:42:19.288Z,612
2016-09-22T05:42:59.820Z,612
2016-09-22T05:43:40.349Z,616
2016-09-22T05:44:20.892Z,624
2016-09-22T05:45:01.438Z,636
2016-09-22T05:45:41.981Z,648
2016-09-22T05:46:22.533Z,660
2016-09-22T05:47:03.062Z,672
2016-09-22T05:47:43.607Z,680
2016-09-22T05:48:24.139Z,692
2016-09-22T05:49:04.666Z,704
2016-09-22T05:49:45.222Z,720
2016-09-22T05:50:25.754Z,736
2016-09-22T05:51:06.297Z,764
2016-09-22T05:51:46.837Z,780
2016-09-22T05:52:27.368Z,804
2016-09-22T05:53:07.891Z,824
2016-09-22T05:53:48.421Z,836
2016-09-22T05:54:28.967Z,848
2016-09-22T05:55:09.505Z,868
2016-09-22T05:55:50.050Z,884
2016-09-22T05:56:30.604Z,900
2016-09-22T05:57:11.142Z,924
2016-09-22T05:57:51.683Z,952
2016-09-22T05:58:32.232Z,972
2016-09-22T05:59:12.768Z,992
2016-09-22T05:59:53.298Z,1004
2016-09-22T06:00:33.826Z,1012
2016-09-22T06:01:14.367Z,1016
2016-09-22T06:01:54.906Z,1016
2016-09-22T06:02:35.440Z,1020
2016-09-22T06:03:15.986Z,1032
2016-09-22T06:03:56.523Z,1052
2016-09-22T06:04:37.051Z,1064
2016-09-22T06:05:17.590Z,1080
2016-09-22T06:05:58.125Z,1092
2016-09-22T06:06:38.670Z,1108
2016-09-22T06:07:19.213Z,1132
2016-09-22T06:07:59.774Z,1148
2016-09-22T06:08:40.302Z,1164
2016-09-22T06:09:20.846Z,1180
2016-09-22T06:10:01.397Z,1204
2016-09-22T06:10:41.933Z,1236
2016-09-22T06:11:22.480Z,1276
2016-09-22T06:12:03.022Z,1304
2016-09-22T06:12:43.562Z,1328
2016-09-22T06:13:24.091Z,1340
2016-09-22T06:14:04.627Z,1360
2016-09-22T06:14:45.183Z,1380
2016-09-22T06:15:25.718Z,1408
2016-09-22T06:16:06.255Z,1448
2016-09-22T06:16:46.800Z,1492
2016-09-22T06:17:27.353Z,1540
2016-09-22T06:19:41.577Z,1596
2016-09-22T06:20:22.110Z,1596
2016-09-22T06:21:02.641Z,1604
2016-09-22T06:21:43.183Z,1604
2016-09-22T06:22:23.724Z,1604
2016-09-22T06:23:04.243Z,1604
2016-09-22T06:23:44.797Z,1596
2016-09-22T06:24:25.331Z,1580
2016-09-22T06:25:05.848Z,1560
2016-09-22T06:25:46.382Z,1544
2016-09-22T06:26:26.921Z,1544
2016-09-22T06:27:07.475Z,1556
2016-09-22T06:27:48.015Z,1560
2016-09-22T06:28:28.539Z,1572
2016-09-22T06:29:09.083Z,1580
2016-09-22T06:29:49.619Z,1592
2016-09-22T06:30:30.157Z,1616
2016-09-22T06:31:10.698Z,1660
2016-09-22T06:31:51.230Z,1704
2016-09-22T06:32:31.769Z,1744
2016-09-22T06:33:12.307Z,1772
2016-09-22T06:33:52.830Z,1804
2016-09-22T06:34:33.350Z,1828
2016-09-22T06:35:13.886Z,1840
2016-09-22T06:35:54.434Z,1836
2016-09-22T06:36:34.989Z,1828
2016-09-22T06:37:15.521Z,1820
2016-09-22T06:37:56.064Z,1812
2016-09-22T06:38:36.601Z,1808
2016-09-22T06:39:17.137Z,1820
2016-09-22T06:39:57.673Z,1836
2016-09-22T06:40:38.202Z,1868
2016-09-22T06:41:18.744Z,1916
2016-09-22T06:41:59.320Z,1984
2016-09-22T06:42:39.901Z,2052
2016-09-22T06:43:20.432Z,2120
2016-09-22T06:44:00.963Z,2184
2016-09-22T06:44:41.499Z,2268
2016-09-22T06:45:22.044Z,2344
2016-09-22T06:46:02.592Z,2400
2016-09-22T06:46:43.135Z,2440
2016-09-22T06:47:23.678Z,2468
2016-09-22T06:48:04.209Z,2508
2016-09-22T06:48:44.750Z,2564
2016-09-22T06:49:25.277Z,2624
2016-09-22T06:50:05.802Z,2672
2016-09-22T06:50:46.348Z,2700
2016-09-22T06:51:26.896Z,2720
2016-09-22T06:52:07.436Z,2732
2016-09-22T06:52:47.985Z,2752
2016-09-22T06:53:28.525Z,2768
2016-09-22T06:54:09.062Z,2792
2016-09-22T06:54:49.623Z,2808
2016-09-22T06:55:30.165Z,2840
2016-09-22T06:56:10.712Z,2860
2016-09-22T06:56:51.236Z,2884
2016-09-22T06:57:31.772Z,2912
2016-09-22T06:58:12.303Z,2924
2016-09-22T06:58:52.852Z,2948
2016-09-22T06:59:33.394Z,2976
2016-09-22T07:00:13.932Z,2992
2016-09-22T07:00:54.469Z,3008
2016-09-22T07:01:35.004Z,3040
2016-09-22T07:02:15.545Z,3072
2016-09-22T07:02:56.077Z,3096
2016-09-22T07:03:36.612Z,3124
2016-09-22T07:04:17.153Z,3156
2016-09-22T07:04:57.692Z,3184
2016-09-22T07:05:38.234Z,3204
2016-09-22T07:06:18.773Z,3224
2016-09-22T07:06:59.304Z,3252
2016-09-22T07:07:39.894Z,3280
2016-09-22T07:08:20.464Z,3304
2016-09-22T07:09:01.003Z,3324
2016-09-22T07:09:41.541Z,3352
2016-09-22T07:10:22.060Z,3372
2016-09-22T07:11:02.603Z,3396
2016-09-22T07:11:43.150Z,3420
2016-09-22T07:12:23.712Z,3444
2016-09-22T07:13:04.239Z,3464
2016-09-22T07:13:44.780Z,3488
2016-09-22T07:14:25.327Z,3500
2016-09-22T07:15:05.874Z,3500
2016-09-22T07:15:46.423Z,3524
2016-09-22T07:16:26.970Z,3536
2016-09-22T07:17:07.511Z,3540
2016-09-22T07:17:48.055Z,3552
2016-09-22T07:18:28.594Z,3560
2016-09-22T07:19:09.121Z,3584
2016-09-22T07:19:49.648Z,3588
2016-09-22T07:20:30.185Z,3608
2016-09-22T07:21:10.729Z,3612
2016-09-22T07:21:51.273Z,3624
2016-09-22T07:22:31.815Z,3640
2016-09-22T07:23:12.366Z,3664
2016-09-22T07:23:52.924Z,3680
2016-09-22T07:24:33.483Z,3700
2016-09-22T07:25:14.028Z,3716
2016-09-22T07:25:54.571Z,3740
2016-09-22T07:26:35.103Z,3756
2016-09-22T07:27:15.641Z,3776
2016-09-22T07:27:56.182Z,3792
2016-09-22T07:28:36.716Z,3812
2016-09-22T07:29:17.252Z,3828
2016-09-22T07:29:57.790Z,3852
2016-09-22T07:30:38.333Z,3868
2016-09-22T07:31:18.874Z,3892
2016-09-22T07:31:59.415Z,3912
2016-09-22T07:32:39.953Z,3940
2016-09-22T07:33:20.479Z,3960
2016-09-22T07:34:01.010Z,3984
2016-09-22T07:34:41.545Z,4004
2016-09-22T07:35:22.088Z,4020
2016-09-22T07:36:02.635Z,4040
2016-09-22T07:36:43.168Z,4052
2016-09-22T07:37:23.710Z,4072
2016-09-22T07:38:04.234Z,4092
2016-09-22T07:38:44.777Z,4108
2016-09-22T07:39:25.306Z,4136
2016-09-22T07:40:05.845Z,4156
2016-09-22T07:40:46.362Z,4184
2016-09-22T07:41:26.899Z,4212
2016-09-22T07:42:07.438Z,4244
2016-09-22T07:42:47.964Z,4272
2016-09-22T07:43:28.503Z,4296
2016-09-22T07:44:09.052Z,4324
2016-09-22T07:44:49.604Z,4344
2016-09-22T07:45:30.150Z,4364
2016-09-22T07:46:10.697Z,4392
2016-09-22T07:46:51.240Z,4408
2016-09-22T07:47:31.763Z,4428
2016-09-22T07:48:12.312Z,4456
2016-09-22T07:48:52.850Z,4468
2016-09-22T07:49:33.394Z,4492
2016-09-22T07:50:13.935Z,4520
2016-09-22T07:50:54.467Z,4552
2016-09-22T07:51:35.011Z,4572
2016-09-22T07:52:15.558Z,4604
2016-09-22T07:52:56.107Z,4636
2016-09-22T07:53:36.652Z,4668
2016-09-22T07:54:17.197Z,4700
2016-09-22T07:54:57.747Z,4732
2016-09-22T07:55:38.276Z,4756
2016-09-22T07:56:18.826Z,4788
2016-09-22T07:56:59.356Z,4816
2016-09-22T07:57:39.901Z,4864
2016-09-22T07:58:20.430Z,4904
2016-09-22T07:59:00.972Z,4940
2016-09-22T07:59:41.510Z,4980
2016-09-22T08:00:22.050Z,4988
2016-09-22T08:01:02.592Z,5020
2016-09-22T08:01:43.143Z,5084
2016-09-22T08:02:23.690Z,5132
2016-09-22T08:03:04.239Z,5184
2016-09-22T08:03:44.779Z,5232
2016-09-22T08:04:25.320Z,5308
2016-09-22T08:05:05.867Z,5384
2016-09-22T08:05:46.381Z,5448
2016-09-22T08:06:26.922Z,5496
2016-09-22T08:07:07.453Z,5708
2016-09-22T08:07:48.000Z,6372
2016-09-22T08:08:28.550Z,6300
2016-09-22T08:09:09.102Z,5800
2016-09-22T08:09:49.640Z,5836
2016-09-22T08:10:30.187Z,5872
2016-09-22T08:11:10.727Z,5904
2016-09-22T08:11:51.242Z,5992
2016-09-22T08:12:31.781Z,6148
2016-09-22T08:13:12.324Z,6156
2016-09-22T08:13:52.844Z,6264
2016-09-22T08:14:33.388Z,6200
2016-09-22T08:15:13.918Z,6216
2016-09-22T08:15:54.441Z,6232
2016-09-22T08:16:34.987Z,6260
2016-09-22T08:17:15.528Z,6296
2016-09-22T08:17:56.077Z,6324
2016-09-22T08:18:36.611Z,6400
2016-09-22T08:19:17.155Z,6452
2016-09-22T08:19:57.703Z,6524
2016-09-22T08:20:38.243Z,6860
2016-09-22T08:21:18.793Z,7424
2016-09-22T08:21:59.338Z,7480
2016-09-22T08:22:39.880Z,7224
2016-09-22T08:23:20.413Z,6896
2016-09-22T08:24:00.952Z,6964
2016-09-22T08:24:41.493Z,7056
2016-09-22T08:25:22.046Z,7120
2016-09-22T08:26:02.595Z,7192
2016-09-22T08:26:43.131Z,7260
2016-09-22T08:27:23.677Z,7324
2016-09-22T08:28:04.248Z,7344
2016-09-22T08:28:44.787Z,7328
2016-09-22T08:29:25.343Z,7364
2016-09-22T08:30:05.902Z,7480
2016-09-22T08:30:46.444Z,7580
2016-09-22T08:31:26.996Z,7644
2016-09-22T08:32:07.543Z,9088
2016-09-22T08:32:48.085Z,11416
2016-09-22T08:33:28.631Z,12144
2016-09-22T08:34:09.176Z,11320
2016-09-22T08:34:49.713Z,9668
2016-09-22T08:35:30.242Z,8496
2016-09-22T08:36:10.789Z,8432
2016-09-22T08:36:51.325Z,8492
2016-09-22T08:37:31.863Z,8588
2016-09-22T08:38:12.409Z,8628
2016-09-22T08:38:52.958Z,8748
2016-09-22T08:39:33.499Z,8856
2016-09-22T08:40:14.040Z,8924
2016-09-22T08:40:54.593Z,8892
2016-09-22T08:41:35.139Z,8764
2016-09-22T08:42:15.681Z,8656
2016-09-22T08:42:56.221Z,8420
2016-09-22T08:43:36.767Z,8252
2016-09-22T08:44:17.313Z,8064
2016-09-22T08:44:57.846Z,7944
2016-09-22T08:45:38.397Z,8488
2016-09-22T08:46:18.928Z,9948
2016-09-22T08:46:59.476Z,9976
2016-09-22T08:47:40.015Z,10576
2016-09-22T08:48:20.566Z,9108
2016-09-22T08:49:01.115Z,9220
2016-09-22T08:49:41.663Z,9396
2016-09-22T08:50:22.218Z,9852
2016-09-22T08:51:02.771Z,10640
2016-09-22T08:51:43.320Z,12192
2016-09-22T08:52:23.869Z,20896
2016-09-22T08:53:04.422Z,27872
2016-09-22T08:53:44.971Z,35840
2016-09-22T08:54:25.524Z,37824
2016-09-22T08:55:06.070Z,40096
2016-09-22T08:55:46.610Z,47712
2016-09-22T08:56:27.158Z,50944
2016-09-22T08:57:07.710Z,51456
2016-09-22T08:57:48.256Z,49632
2016-09-22T08:58:28.792Z,47616
2016-09-22T08:59:09.342Z,50784
2016-09-22T08:59:49.892Z,52544
2016-09-22T09:00:30.440Z,51840
2016-09-22T09:01:10.990Z,52960
2016-09-22T09:01:51.521Z,51616
2016-09-22T09:02:32.102Z,49376
2016-09-22T09:03:12.641Z,48256
2016-09-22T09:03:53.186Z,41024
2016-09-22T09:04:33.728Z,43424
2016-09-22T09:05:14.274Z,44736
2016-09-22T09:05:54.826Z,47648
2016-09-22T09:06:35.376Z,47520
2016-09-22T09:07:15.913Z,46752
2016-09-22T09:07:56.462Z,49792
2016-09-22T09:08:37.006Z,50272
2016-09-22T09:09:17.555Z,48576
2016-09-22T09:09:58.101Z,48320
2016-09-22T09:10:38.645Z,51168
2016-09-22T09:11:19.196Z,51840
2016-09-22T09:11:59.745Z,51744
2016-09-22T09:12:40.298Z,51360
2016-09-22T09:13:20.848Z,51424
2016-09-22T09:14:01.405Z,50976
2016-09-22T09:14:41.962Z,50912
2016-09-22T09:15:22.508Z,51200
2016-09-22T09:16:03.149Z,51040
2016-09-22T09:16:43.834Z,49824
2016-09-22T09:17:24.414Z,45376
2016-09-22T09:18:05.082Z,48768
2016-09-22T09:18:45.605Z,45440
2016-09-22T09:19:26.138Z,43392
2016-09-22T09:20:06.675Z,41920
2016-09-22T09:20:47.231Z,39680
2016-09-22T09:21:27.782Z,44224
2016-09-22T09:22:08.331Z,46976
2016-09-22T09:22:48.884Z,47296
2016-09-22T09:23:29.430Z,48128
2016-09-22T09:24:09.985Z,48416
2016-09-22T09:24:50.538Z,47136
2016-09-22T09:25:31.087Z,44384
2016-09-22T09:26:11.634Z,44928
2016-09-22T09:26:52.184Z,45600
2016-09-22T09:27:32.744Z,46560
2016-09-22T09:28:13.278Z,47200
2016-09-22T09:28:53.841Z,47904
2016-09-22T09:29:34.388Z,48416
2016-09-22T09:30:14.941Z,48224
2016-09-22T09:30:55.496Z,48192
2016-09-22T09:31:36.044Z,48064
2016-09-22T09:32:16.597Z,48448